ADDS METAR Data INFO
IDs: Format: Raw Decoded Include TAF

Data at: 1950 UTC 14 Aug 2018

KTCL 141853Z 25004KT 10SM CLR 34/17 A3002 RMK AO2 SLP163 T03390172
KTCL 141753Z 29006KT 10SM CLR 33/19 A3004 RMK AO2 SLP169 T03330194 10339 20228 58004
KTCL 141653Z 11003KT 9SM CLR 32/19 A3005 RMK AO2 SLP171 T03220194
KTCL 141553Z 00000KT 8SM CLR 31/22 A3005 RMK AO2 SLP175 T03110217
KTCL 141453Z 00000KT 8SM CLR 27/22 A3005 RMK AO2 SLP173 T02720222 51004
KTCL 141353Z 00000KT 8SM CLR 26/22 A3004 RMK AO2 SLP171 T02560222
KTCL 141253Z 31003KT 5SM BR CLR 24/22 A3005 RMK AO2 SLP172 T02390222
KTCL 141153Z 00000KT 5SM BR CLR 23/22 A3004 RMK AO2 SLP169 T02280217 10239 20228 53011
KTCL 141053Z AUTO 00000KT 6SM BR SCT060 23/22 A3002 RMK AO2 SLP164 T02280217
KTCL 140953Z AUTO 29003KT 6SM BR CLR 23/22 A3001 RMK AO2 SLP160 T02280217
KTCL 140853Z AUTO 00000KT 7SM CLR 23/22 A3001 RMK AO2 SLP158 T02280217 55007
KTCL 140753Z AUTO 00000KT 6SM BR CLR 23/22 A3000 RMK AO2 SLP157 T02280217
KTCL 140653Z AUTO 00000KT 8SM CLR 24/22 A3001 RMK AO2 SLP160 T02390217
KTCL 140553Z AUTO 30003KT 8SM CLR 24/22 A3003 RMK AO2 SLP165 T02390222 10283 20239 403500222 50001
KTCL 140453Z AUTO 28003KT 9SM CLR 24/22 A3003 RMK AO2 SLP166 T02440222
KTCL 140353Z AUTO 02003KT 10SM CLR 26/22 A3002 RMK AO2 SLP164 T02560222
KTCL 140253Z AUTO 00000KT 10SM CLR 27/22 A3002 RMK AO2 SLP164 T02670222 51010
KTCL 140153Z AUTO 00000KT 9SM CLR 26/24 A3001 RMK AO2 SLP161 T02560239
KTCL 140053Z AUTO 00000KT 10SM CLR 27/23 A3001 RMK AO2 SLP158 T02670233
KTCL 132353Z 25003KT 10SM CLR 28/23 A2999 RMK AO2 SLP154 T02830228 10350 20283 53001
KTCL 132253Z 24006KT 10SM CLR 29/22 A2999 RMK AO2 SLP153 T02890222
KTCL 132153Z 26007KT 10SM FEW055 SCT070 BKN100 29/22 A2999 RMK AO2 LTG DSNT SE SLP154 T02940222
KTCL 132053Z 23005KT 10SM CLR 34/22 A2999 RMK AO2 LTG DSNT S SLP153 T03390217 56021
KTCL 131953Z 00000KT 10SM CLR 35/22 A3000 RMK AO2 LTG DSNT SW SLP156 T03500222
KTCL 131853Z VRB03KT 9SM CLR 34/22 A3002 RMK AO2 SLP164 T03390222
KTCL 131753Z 21005KT 9SM CLR 33/23 A3005 RMK AO2 SLP174 T03280228 10328 20228 58006
KTCL 131653Z 00000KT 9SM CLR 32/22 A3007 RMK AO2 SLP179 T03170222
KTCL 131553Z 00000KT 9SM CLR 31/23 A3007 RMK AO2 SLP180 T03060228
KTCL 131453Z 00000KT 9SM CLR 28/23 A3007 RMK AO2 SLP180 T02830228 51005
KTCL 131353Z 00000KT 9SM CLR 27/22 A3007 RMK AO2 SLP180 T02670217
KTCL 131253Z 00000KT 7SM CLR 24/22 A3006 RMK AO2 SLP178 T02440222
KTCL 131153Z 00000KT 6SM BR CLR 23/21 A3006 RMK AO2 SLP175 70008 T02280211 10233 20222 53004
KTCL 131053Z AUTO 00000KT 6SM BR CLR 22/21 A3005 RMK AO2 SLP172 T02220211
KTCL 130953Z AUTO 00000KT 4SM BR CLR 22/21 A3004 RMK AO2 SLP170 T02220211
KTCL 130853Z AUTO 00000KT 6SM BR CLR 23/22 A3004 RMK AO2 SLP171 T02280217 58000
KTCL 130753Z AUTO 00000KT 5SM BR CLR 23/22 A3005 RMK AO2 SLP172 T02280217